createdAt,value
2022-08-21T00:02:04.721Z,101104.16
2022-08-21T00:04:32.489Z,101103.13
2022-08-21T00:06:59.807Z,101097.50
2022-08-21T00:09:27.027Z,101098.50
2022-08-21T00:11:54.340Z,101091.22
2022-08-21T00:14:22.142Z,101094.75
2022-08-21T00:16:49.522Z,101089.41
2022-08-21T00:19:16.986Z,101087.00
2022-08-21T00:21:44.575Z,101081.34
2022-08-21T00:24:13.530Z,101089.53
2022-08-21T00:26:44.247Z,101097.41
2022-08-21T00:29:11.692Z,101090.88
2022-08-21T00:31:41.925Z,101092.28
2022-08-21T00:34:10.176Z,101083.59
2022-08-21T00:36:37.396Z,101090.47
2022-08-21T00:39:08.277Z,101082.59
2022-08-21T00:41:39.120Z,101084.00
2022-08-21T00:44:11.806Z,101088.97
2022-08-21T00:46:40.004Z,101093.91
2022-08-21T00:49:09.167Z,101085.53
2022-08-21T00:51:47.122Z,101083.41
2022-08-21T00:54:18.371Z,101089.69
2022-08-21T00:56:55.209Z,101091.09
2022-08-21T00:59:24.605Z,101088.47
2022-08-21T01:01:55.707Z,101097.16
2022-08-21T01:04:26.103Z,101093.09
2022-08-21T01:06:54.168Z,101093.09
2022-08-21T01:09:24.694Z,101093.91
2022-08-21T01:11:52.352Z,101089.06
2022-08-21T01:14:20.751Z,101094.81
2022-08-21T01:16:53.353Z,101110.06
2022-08-21T01:19:22.521Z,101106.84
2022-08-21T01:21:49.851Z,101106.34
2022-08-21T01:24:17.388Z,101097.44
2022-08-21T01:26:45.543Z,101104.81
2022-08-21T01:29:33.511Z,101113.00
2022-08-21T01:32:08.639Z,101108.75
2022-08-21T01:34:42.578Z,101114.19
2022-08-21T01:37:12.233Z,101099.03
2022-08-21T01:39:41.292Z,101105.59
2022-08-21T01:42:11.432Z,101106.41
2022-08-21T01:44:42.185Z,101105.59
2022-08-21T01:47:14.259Z,101102.06
2022-08-21T01:49:43.340Z,101103.47
2022-08-21T01:52:11.305Z,101104.09
2022-08-21T01:54:45.476Z,101106.81
2022-08-21T01:57:22.725Z,101099.25
2022-08-21T01:59:54.864Z,101097.91
2022-08-21T02:02:22.783Z,101096.06
2022-08-21T02:04:52.332Z,101104.53
2022-08-21T02:07:19.700Z,101109.78
2022-08-21T02:09:50.032Z,101108.47
2022-08-21T02:12:18.177Z,101102.50
2022-08-21T02:14:45.669Z,101103.66
2022-08-21T02:17:12.783Z,101093.88
2022-08-21T02:19:42.510Z,101109.50
2022-08-21T02:22:13.057Z,101100.00
2022-08-21T02:24:54.801Z,101106.84
2022-08-21T02:27:26.065Z,101110.19
2022-08-21T02:29:58.198Z,101104.22
2022-08-21T02:32:26.803Z,101100.19
2022-08-21T02:34:56.605Z,101098.88
2022-08-21T02:37:25.228Z,101112.25
2022-08-21T02:39:52.669Z,101108.50
2022-08-21T02:42:19.612Z,101104.78
2022-08-21T02:44:46.684Z,101104.25
2022-08-21T02:47:15.291Z,101109.47
2022-08-21T02:49:42.214Z,101108.47
2022-08-21T02:52:09.061Z,101113.91
2022-08-21T02:54:36.120Z,101101.47
2022-08-21T02:57:03.023Z,101106.13
2022-08-21T02:59:30.115Z,101111.84
2022-08-21T03:01:57.891Z,101104.56
2022-08-21T03:04:24.844Z,101112.22
2022-08-21T03:06:51.745Z,101105.19
2022-08-21T03:09:18.685Z,101106.00
2022-08-21T03:11:46.675Z,101106.59
2022-08-21T03:14:13.724Z,101119.69
2022-08-21T03:16:40.639Z,101098.81
2022-08-21T03:19:07.477Z,101103.75
2022-08-21T03:21:34.666Z,101109.75
2022-08-21T03:24:04.121Z,101105.47
2022-08-21T03:26:32.374Z,101104.09
2022-08-21T03:28:59.653Z,101104.66
2022-08-21T03:31:31.658Z,101108.78
2022-08-21T03:33:59.745Z,101109.88
2022-08-21T03:36:26.833Z,101105.31
2022-08-21T03:38:54.823Z,101107.81
2022-08-21T03:41:21.796Z,101111.94
2022-08-21T03:43:48.716Z,101110.59
2022-08-21T03:46:15.983Z,101102.78
2022-08-21T03:48:42.882Z,101106.63
2022-08-21T03:51:10.300Z,101112.63
2022-08-21T03:53:37.779Z,101112.13
2022-08-21T03:56:06.435Z,101118.13
2022-08-21T03:58:33.895Z,101102.69
2022-08-21T04:01:02.491Z,101116.59
2022-08-21T04:03:30.097Z,101116.66
2022-08-21T04:05:57.467Z,101114.00
2022-08-21T04:08:24.820Z,101118.03
2022-08-21T04:10:56.903Z,101117.81
2022-08-21T04:13:23.900Z,101131.66
2022-08-21T04:15:51.088Z,101138.47
2022-08-21T04:18:18.090Z,101124.06
2022-08-21T04:20:50.312Z,101133.91
2022-08-21T04:23:23.587Z,101137.44
2022-08-21T04:25:53.922Z,101130.38
2022-08-21T04:28:23.164Z,101130.38
2022-08-21T04:30:53.052Z,101134.19
2022-08-21T04:33:21.846Z,101128.75
2022-08-21T04:35:50.451Z,101129.56
2022-08-21T04:38:17.765Z,101131.47
2022-08-21T04:40:45.321Z,101116.28
2022-08-21T04:43:13.695Z,101117.91
2022-08-21T04:45:45.736Z,101129.81
2022-08-21T04:48:16.376Z,101126.56
2022-08-21T04:51:19.333Z,101117.31
2022-08-21T04:54:00.331Z,101119.22
2022-08-21T04:56:42.973Z,101126.50
2022-08-21T04:59:20.347Z,101116.16
2022-08-21T05:01:48.030Z,101119.72
2022-08-21T05:04:20.169Z,101125.09
2022-08-21T05:06:49.208Z,101135.91
2022-08-21T05:09:18.693Z,101130.47
2022-08-21T05:11:46.092Z,101119.88
2022-08-21T05:14:13.897Z,101126.88
2022-08-21T05:16:42.651Z,101133.06
2022-08-21T05:19:09.839Z,101128.13
2022-08-21T05:21:41.195Z,101137.34
2022-08-21T05:24:08.794Z,101141.91
2022-08-21T05:26:38.286Z,101144.03
2022-08-21T05:29:15.649Z,101142.13
2022-08-21T05:31:44.548Z,101140.97
2022-08-21T05:34:13.576Z,101147.94
2022-08-21T05:36:43.350Z,101143.53
2022-08-21T05:39:10.182Z,101139.75
2022-08-21T05:41:37.649Z,101144.84
2022-08-21T05:44:05.107Z,101148.28
2022-08-21T05:46:37.635Z,101143.38
2022-08-21T05:49:04.886Z,101137.63
2022-08-21T05:51:32.113Z,101142.97
2022-08-21T05:53:59.622Z,101154.88
2022-08-21T05:56:26.539Z,101146.63
2022-08-21T05:58:53.790Z,101138.41
2022-08-21T06:01:21.073Z,101143.16
2022-08-21T06:03:47.982Z,101144.41
2022-08-21T06:06:15.256Z,101145.13
2022-08-21T06:08:42.116Z,101139.41
2022-08-21T06:11:10.611Z,101156.16
2022-08-21T06:13:38.611Z,101147.09
2022-08-21T06:16:15.680Z,101148.63
2022-08-21T06:18:45.770Z,101146.13
2022-08-21T06:21:13.935Z,101154.66
2022-08-21T06:23:42.074Z,101143.94
2022-08-21T06:26:11.951Z,101152.72
2022-08-21T06:28:39.253Z,101142.75
2022-08-21T06:31:22.774Z,101155.09
2022-08-21T06:33:49.953Z,101147.13
2022-08-21T06:36:18.188Z,101164.28
2022-08-21T06:38:51.146Z,101156.81
2022-08-21T06:41:24.256Z,101167.50
2022-08-21T06:43:55.441Z,101154.97
2022-08-21T06:46:23.503Z,101144.66
2022-08-21T06:48:50.404Z,101150.09
2022-08-21T06:51:17.827Z,101142.97
2022-08-21T06:53:45.096Z,101138.72
2022-08-21T06:56:12.415Z,101149.63
2022-08-21T06:58:39.555Z,101149.41
2022-08-21T07:01:06.647Z,101149.00
2022-08-21T07:03:43.329Z,101146.97
2022-08-21T07:06:12.416Z,101138.66
2022-08-21T07:08:40.062Z,101147.59
2022-08-21T07:11:19.663Z,101142.66
2022-08-21T07:13:47.052Z,101139.19
2022-08-21T07:16:14.089Z,101132.88
2022-08-21T07:18:41.365Z,101133.91
2022-08-21T07:21:09.465Z,101138.69
2022-08-21T07:23:42.344Z,101143.72
2022-08-21T07:26:11.697Z,101133.75
2022-08-21T07:28:38.584Z,101120.63
2022-08-21T07:31:06.355Z,101129.38
2022-08-21T07:33:35.243Z,101128.56
2022-08-21T07:36:03.515Z,101115.41
2022-08-21T07:38:33.681Z,101126.53
2022-08-21T07:41:02.833Z,101123.16
2022-08-21T07:43:30.905Z,101113.69
2022-08-21T07:45:58.279Z,101123.09
2022-08-21T07:48:25.379Z,101120.81
2022-08-21T07:50:52.322Z,101118.56
2022-08-21T07:53:19.564Z,101124.84
2022-08-21T07:55:46.463Z,101125.31
2022-08-21T07:58:13.754Z,101130.16
2022-08-21T08:00:41.710Z,101121.28
2022-08-21T08:03:09.288Z,101121.91
2022-08-21T08:05:40.873Z,101114.28
2022-08-21T08:08:08.579Z,101119.38
2022-08-21T08:10:36.648Z,101121.41
2022-08-21T08:13:04.024Z,101110.66
2022-08-21T08:15:35.481Z,101109.72
2022-08-21T08:18:04.702Z,101114.94
2022-08-21T08:20:31.744Z,101112.53
2022-08-21T08:22:58.637Z,101112.69
2022-08-21T08:25:27.101Z,101119.41
2022-08-21T08:27:54.112Z,101118.69
2022-08-21T08:30:24.554Z,101110.03
2022-08-21T08:32:51.916Z,101112.63
2022-08-21T08:35:19.061Z,101099.53
2022-08-21T08:37:52.579Z,101106.38
2022-08-21T08:40:49.904Z,101100.94
2022-08-21T08:43:16.957Z,101096.59
2022-08-21T08:45:51.396Z,101098.34
2022-08-21T08:48:52.776Z,101103.19
2022-08-21T08:51:28.011Z,101099.66
2022-08-21T08:54:09.410Z,101086.59
2022-08-21T08:56:37.071Z,101087.13
2022-08-21T08:59:19.954Z,101084.47
2022-08-21T09:01:48.778Z,101089.97
2022-08-21T09:04:24.862Z,101084.28
2022-08-21T09:07:04.613Z,101082.41
2022-08-21T09:10:04.854Z,101084.44
2022-08-21T09:12:46.864Z,101076.97
2022-08-21T09:15:20.649Z,101085.69
2022-08-21T09:18:16.395Z,101079.81
2022-08-21T09:21:10.856Z,101089.25
2022-08-21T09:24:02.985Z,101088.28
2022-08-21T09:26:40.545Z,101081.00
2022-08-21T09:29:11.028Z,101073.34
2022-08-21T09:31:39.203Z,101083.94
2022-08-21T09:34:10.508Z,101086.69
2022-08-21T09:36:45.211Z,101089.09
2022-08-21T09:39:26.881Z,101089.38
2022-08-21T09:42:00.598Z,101088.22
2022-08-21T09:44:32.666Z,101079.56
2022-08-21T09:47:00.344Z,101076.72
2022-08-21T09:49:37.637Z,101082.88
2022-08-21T09:52:17.993Z,101089.97
2022-08-21T09:54:47.301Z,101082.94
2022-08-21T09:57:46.362Z,101077.06
2022-08-21T10:00:27.892Z,101082.50
2022-08-21T10:02:55.225Z,101080.06
2022-08-21T10:05:26.713Z,101073.81
2022-08-21T10:07:54.202Z,101072.56
2022-08-21T10:10:32.300Z,101070.59
2022-08-21T10:13:17.654Z,101076.09
2022-08-21T10:16:22.473Z,101074.50
2022-08-21T10:19:13.936Z,101075.78
2022-08-21T10:22:17.749Z,101078.63
2022-08-21T10:25:19.277Z,101089.25
2022-08-21T10:28:02.982Z,101083.09
2022-08-21T10:30:48.999Z,101087.59
2022-08-21T10:34:14.816Z,101075.44
2022-08-21T10:37:07.830Z,101089.56
2022-08-21T10:39:52.073Z,101077.56
2022-08-21T10:42:33.186Z,101080.25
2022-08-21T10:45:38.020Z,101071.50
2022-08-21T10:48:08.922Z,101069.53
2022-08-21T10:50:50.362Z,101065.88
2022-08-21T10:53:32.154Z,101068.16
2022-08-21T10:56:37.419Z,101063.22
2022-08-21T10:59:46.120Z,101059.25
2022-08-21T11:02:31.132Z,101065.41
2022-08-21T11:05:15.444Z,101065.47
2022-08-21T11:08:25.163Z,101073.28
2022-08-21T11:11:22.695Z,101056.06
2022-08-21T11:14:01.456Z,101063.81
2022-08-21T11:16:39.027Z,101068.69
2022-08-21T11:19:20.424Z,101065.63
2022-08-21T11:21:55.479Z,101057.31
2022-08-21T11:24:56.282Z,101046.16
2022-08-21T11:27:50.170Z,101048.84
2022-08-21T11:30:21.324Z,101044.88
2022-08-21T11:33:10.909Z,101060.44
2022-08-21T11:35:55.084Z,101047.66
2022-08-21T11:38:35.760Z,101051.25
2022-08-21T11:41:37.187Z,101046.47
2022-08-21T11:44:30.215Z,101039.25
2022-08-21T11:47:04.672Z,101038.41
2022-08-21T11:49:37.811Z,101045.09
2022-08-21T11:52:27.335Z,101038.72
2022-08-21T11:55:23.642Z,101035.41
2022-08-21T11:58:11.081Z,101031.53
2022-08-21T12:00:48.365Z,101031.84
2022-08-21T12:03:30.752Z,101021.41
2022-08-21T12:06:24.124Z,101025.31
2022-08-21T12:09:08.395Z,101029.34
2022-08-21T12:12:12.377Z,101019.44
2022-08-21T12:14:48.251Z,101008.09
2022-08-21T12:17:27.747Z,101013.72
2022-08-21T12:20:18.801Z,101021.09
2022-08-21T12:23:14.730Z,101010.13
2022-08-21T12:26:02.655Z,101014.88
2022-08-21T12:28:31.932Z,101011.81
2022-08-21T12:30:59.427Z,101011.25
2022-08-21T12:33:42.024Z,101005.50
2022-08-21T12:36:22.380Z,101001.69
2022-08-21T12:38:53.321Z,100994.25
2022-08-21T12:41:27.975Z,100997.34
2022-08-21T12:44:06.479Z,101005.41
2022-08-21T12:46:44.589Z,100991.22
2022-08-21T12:49:31.677Z,100988.41
2022-08-21T12:52:32.068Z,100988.59
2022-08-21T12:55:01.350Z,100979.53
2022-08-21T12:57:31.136Z,100998.13
2022-08-21T13:00:13.961Z,100973.81
2022-08-21T13:02:48.540Z,100989.66
2022-08-21T13:05:28.315Z,100971.97
2022-08-21T13:07:55.472Z,100982.19
2022-08-21T13:10:34.884Z,100979.91
2022-08-21T13:13:25.024Z,100970.19
2022-08-21T13:16:04.631Z,100976.84
2022-08-21T13:18:52.293Z,100965.59
2022-08-21T13:21:22.087Z,100969.03
2022-08-21T13:23:49.202Z,100960.00
2022-08-21T13:26:22.711Z,100973.28
2022-08-21T13:28:51.243Z,100977.13
2022-08-21T13:31:28.282Z,100974.41
2022-08-21T13:33:56.299Z,100973.94
2022-08-21T13:36:38.549Z,100967.75
2022-08-21T13:39:09.290Z,100977.00
2022-08-21T13:41:39.996Z,100973.34
2022-08-21T13:44:32.679Z,100980.41
2022-08-21T13:47:03.575Z,100977.28
2022-08-21T13:49:35.590Z,100965.38
2022-08-21T13:52:03.304Z,100970.84
2022-08-21T13:54:36.635Z,100973.47
2022-08-21T13:57:04.495Z,100973.66
2022-08-21T13:59:35.438Z,100975.66
2022-08-21T14:02:17.734Z,100958.25
2022-08-21T14:05:00.145Z,100964.09
2022-08-21T14:07:36.737Z,100957.59
2022-08-21T14:10:14.629Z,100965.22
2022-08-21T14:12:57.102Z,100963.72
2022-08-21T14:15:31.619Z,100963.47
2022-08-21T14:18:29.233Z,100963.59
2022-08-21T14:21:10.168Z,100972.59
2022-08-21T14:23:37.850Z,100968.78
2022-08-21T14:26:07.291Z,100965.16
2022-08-21T14:28:42.152Z,100964.06
2022-08-21T14:31:20.506Z,100973.78
2022-08-21T14:33:47.876Z,100973.19
2022-08-21T14:36:15.417Z,100969.69
2022-08-21T14:38:42.461Z,100964.47
2022-08-21T14:41:24.811Z,100975.91
2022-08-21T14:44:05.745Z,100972.88
2022-08-21T14:46:40.875Z,100984.31
2022-08-21T14:49:28.576Z,100982.97
2022-08-21T14:51:59.614Z,100983.63
2022-08-21T14:54:31.760Z,100992.41
2022-08-21T14:57:07.955Z,100981.81
2022-08-21T14:59:36.343Z,100990.81
2022-08-21T15:02:07.159Z,100998.38
2022-08-21T15:04:35.161Z,100997.44
2022-08-21T15:07:02.489Z,101005.50
2022-08-21T15:09:29.811Z,101001.91
2022-08-21T15:12:00.150Z,101006.59
2022-08-21T15:14:31.072Z,101005.63
2022-08-21T15:16:58.461Z,101004.19
2022-08-21T15:19:26.728Z,100993.94
2022-08-21T15:21:54.038Z,101012.69
2022-08-21T15:24:21.275Z,101004.34
2022-08-21T15:26:48.727Z,101015.50
2022-08-21T15:29:17.897Z,100998.69
2022-08-21T15:32:01.500Z,101011.31
2022-08-21T15:34:30.946Z,101004.00
2022-08-21T15:36:59.239Z,101010.16
2022-08-21T15:39:31.136Z,101010.31
2022-08-21T15:42:08.276Z,101009.13
2022-08-21T15:44:40.040Z,101013.94
2022-08-21T15:47:11.156Z,101014.31
2022-08-21T15:49:38.454Z,101020.16
2022-08-21T15:52:05.642Z,101026.84
2022-08-21T15:54:32.688Z,101016.84
2022-08-21T15:56:59.525Z,101027.44
2022-08-21T15:59:28.878Z,101021.41
2022-08-21T16:01:55.955Z,101029.94
2022-08-21T16:04:28.074Z,101030.63
2022-08-21T16:07:01.092Z,101030.00
2022-08-21T16:09:32.414Z,101024.19
2022-08-21T16:12:01.678Z,101033.94
2022-08-21T16:14:32.021Z,101027.03
2022-08-21T16:16:59.285Z,101025.56
2022-08-21T16:19:29.402Z,101024.22
2022-08-21T16:21:56.836Z,101029.13
2022-08-21T16:24:23.712Z,101029.81
2022-08-21T16:26:57.874Z,101029.69
2022-08-21T16:29:34.966Z,101037.72
2022-08-21T16:32:02.789Z,101037.09
2022-08-21T16:34:29.857Z,101038.50
2022-08-21T16:36:57.125Z,101038.75
2022-08-21T16:39:24.599Z,101038.59
2022-08-21T16:41:51.852Z,101041.59
2022-08-21T16:44:22.975Z,101039.03
2022-08-21T16:46:50.242Z,101049.09
2022-08-21T16:49:17.228Z,101046.19
2022-08-21T16:51:44.570Z,101049.25
2022-08-21T16:54:13.819Z,101046.75
2022-08-21T16:56:45.686Z,101050.94
2022-08-21T16:59:14.741Z,101050.41
2022-08-21T17:01:45.101Z,101049.88
2022-08-21T17:04:12.180Z,101035.44
2022-08-21T17:06:39.545Z,101043.44
2022-08-21T17:09:07.006Z,101044.13
2022-08-21T17:11:45.203Z,101044.50
2022-08-21T17:14:17.678Z,101049.91
2022-08-21T17:16:48.217Z,101044.00
2022-08-21T17:19:15.523Z,101043.41
2022-08-21T17:21:42.897Z,101032.16
2022-08-21T17:24:09.853Z,101044.28
2022-08-21T17:26:37.481Z,101048.69
2022-08-21T17:29:10.190Z,101049.19
2022-08-21T17:31:39.548Z,101040.81
2022-08-21T17:34:07.197Z,101051.81
2022-08-21T17:36:34.453Z,101048.41
2022-08-21T17:39:01.508Z,101055.50
2022-08-21T17:41:28.459Z,101044.56
2022-08-21T17:43:55.547Z,101053.94
2022-08-21T17:46:27.624Z,101055.72
2022-08-21T17:48:57.020Z,101058.31
2022-08-21T17:51:28.956Z,101055.59
2022-08-21T17:53:56.434Z,101054.28
2022-08-21T17:56:30.662Z,101061.31
2022-08-21T17:58:58.020Z,101061.16
2022-08-21T18:01:29.512Z,101059.06
2022-08-21T18:03:56.408Z,101065.63
2022-08-21T18:06:23.732Z,101070.47
2022-08-21T18:08:50.794Z,101072.53
2022-08-21T18:11:31.908Z,101074.56
2022-08-21T18:14:07.146Z,101073.06
2022-08-21T18:16:37.937Z,101086.22
2022-08-21T18:19:11.725Z,101084.56
2022-08-21T18:21:38.942Z,101084.66
2022-08-21T18:24:06.328Z,101082.50
2022-08-21T18:26:37.378Z,101085.47
2022-08-21T18:29:09.179Z,101091.50
2022-08-21T18:31:38.879Z,101102.69
2022-08-21T18:34:39.626Z,101103.06
2022-08-21T18:37:07.615Z,101103.28
2022-08-21T18:39:36.992Z,101105.44
2022-08-21T18:42:11.539Z,101102.94
2022-08-21T18:44:40.547Z,101105.41
2022-08-21T18:47:23.807Z,101109.78
2022-08-21T18:49:51.494Z,101109.19
2022-08-21T18:52:20.452Z,101102.94
2022-08-21T18:54:50.190Z,101111.59
2022-08-21T18:57:19.098Z,101106.03
2022-08-21T18:59:48.487Z,101120.66
2022-08-21T19:02:16.117Z,101114.91
2022-08-21T19:04:44.939Z,101122.19
2022-08-21T19:07:16.305Z,101116.31
2022-08-21T19:09:56.917Z,101121.44
2022-08-21T19:12:31.100Z,101123.25
2022-08-21T19:14:58.749Z,101114.72
2022-08-21T19:17:27.225Z,101114.25
2022-08-21T19:20:07.456Z,101122.00
2022-08-21T19:22:53.091Z,101125.50
2022-08-21T19:25:20.802Z,101123.44
2022-08-21T19:28:11.469Z,101120.06
2022-08-21T19:30:49.125Z,101123.97
2022-08-21T19:33:26.591Z,101130.09
2022-08-21T19:35:53.504Z,101122.63
2022-08-21T19:38:21.577Z,101130.56
2022-08-21T19:40:49.788Z,101124.69
2022-08-21T19:43:16.802Z,101136.19
2022-08-21T19:45:54.522Z,101135.22
2022-08-21T19:48:22.441Z,101135.28
2022-08-21T19:50:50.926Z,101138.66
2022-08-21T19:53:19.940Z,101129.75
2022-08-21T19:55:48.241Z,101129.00
2022-08-21T19:58:38.798Z,101140.75
2022-08-21T20:01:16.273Z,101124.28
2022-08-21T20:03:54.395Z,101139.00
2022-08-21T20:06:24.152Z,101133.38
2022-08-21T20:08:52.631Z,101131.81
2022-08-21T20:11:47.639Z,101131.59
2022-08-21T20:14:22.347Z,101129.78
2022-08-21T20:16:56.364Z,101140.44
2022-08-21T20:19:23.413Z,101136.41
2022-08-21T20:21:50.467Z,101135.63
2022-08-21T20:24:17.635Z,101139.75
2022-08-21T20:26:49.314Z,101142.78
2022-08-21T20:29:35.118Z,101147.75
2022-08-21T20:32:07.778Z,101136.91
2022-08-21T20:34:35.803Z,101147.53
2022-08-21T20:37:02.985Z,101143.78
2022-08-21T20:39:32.582Z,101144.88
2022-08-21T20:41:59.803Z,101139.78
2022-08-21T20:44:31.422Z,101150.38
2022-08-21T20:47:00.735Z,101148.53
2022-08-21T20:49:46.096Z,101152.91
2022-08-21T20:52:17.085Z,101157.84
2022-08-21T20:55:02.901Z,101152.44
2022-08-21T20:57:40.652Z,101155.19
2022-08-21T21:00:14.571Z,101144.34
2022-08-21T21:03:00.303Z,101158.47
2022-08-21T21:05:33.978Z,101156.06
2022-08-21T21:08:39.724Z,101162.88
2022-08-21T21:11:17.665Z,101166.69
2022-08-21T21:14:17.290Z,101164.28
2022-08-21T21:16:51.348Z,101161.06
2022-08-21T21:19:41.077Z,101158.38
2022-08-21T21:22:14.045Z,101166.53
2022-08-21T21:25:08.433Z,101157.06
2022-08-21T21:27:53.534Z,101163.81
2022-08-21T21:30:34.340Z,101160.31
2022-08-21T21:33:04.414Z,101158.16
2022-08-21T21:35:41.584Z,101160.06
2022-08-21T21:38:37.055Z,101166.03
2022-08-21T21:41:28.884Z,101164.69
2022-08-21T21:44:28.066Z,101166.59
2022-08-21T21:47:23.713Z,101168.25
2022-08-21T21:50:18.813Z,101159.88
2022-08-21T21:53:19.488Z,101160.16
2022-08-21T21:56:12.615Z,101178.31
2022-08-21T21:59:08.272Z,101180.75
2022-08-21T22:01:46.007Z,101172.91
2022-08-21T22:04:40.495Z,101186.44
2022-08-21T22:07:25.167Z,101177.25
2022-08-21T22:10:30.513Z,101187.53
2022-08-21T22:13:50.459Z,101187.53
2022-08-21T22:16:22.536Z,101182.69
2022-08-21T22:22:17.538Z,101181.34
2022-08-21T22:24:52.728Z,101178.91
2022-08-21T22:27:29.692Z,101179.16
2022-08-21T22:30:01.873Z,101175.94
2022-08-21T22:35:33.539Z,101176.47
2022-08-21T22:38:28.057Z,101179.19
2022-08-21T22:41:13.108Z,101181.88
2022-08-21T22:44:03.553Z,101180.81
2022-08-21T22:46:39.762Z,101182.44
2022-08-21T22:49:12.110Z,101194.88
2022-08-21T22:51:45.106Z,101192.44
2022-08-21T22:54:23.022Z,101191.63
2022-08-21T22:57:02.918Z,101185.41
2022-08-21T22:59:35.467Z,101189.72
2022-08-21T23:02:20.197Z,101186.47
2022-08-21T23:04:50.342Z,101175.66
2022-08-21T23:07:44.469Z,101187.56
2022-08-21T23:10:19.860Z,101188.13
2022-08-21T23:12:54.144Z,101187.84
2022-08-21T23:15:21.776Z,101191.91
2022-08-21T23:18:02.344Z,101182.16
2022-08-21T23:20:40.988Z,101185.94
2022-08-21T23:23:29.769Z,101192.44
2022-08-21T23:26:22.785Z,101181.06
2022-08-21T23:29:27.093Z,101186.50
2022-08-21T23:32:26.738Z,101189.47
2022-08-21T23:35:22.312Z,101185.41
2022-08-21T23:38:01.320Z,101187.03
2022-08-21T23:40:51.491Z,101196.25
2022-08-21T23:43:53.617Z,101190.28
2022-08-21T23:46:47.499Z,101186.25
2022-08-21T23:49:28.089Z,101184.88
2022-08-21T23:52:35.502Z,101190.56
2022-08-21T23:55:38.789Z,101181.63
2022-08-21T23:58:09.717Z,101178.91
